CDT,Max TemperatureF,Mean TemperatureF,Min TemperatureF,Max Dew PointF,MeanDew PointF,Min DewpointF,Max Humidity, Mean Humidity, Min Humidity, Max Sea Level PressureIn, Mean Sea Level PressureIn, Min Sea Level PressureIn, Max VisibilityMiles, Mean VisibilityMiles, Min VisibilityMiles, Max Wind SpeedMPH, Mean Wind SpeedMPH, Max Gust SpeedMPH,PrecipitationIn, CloudCover, Events, WindDirDegrees
2012-9-1,91,77,63,65,61,57,93,63,32,30.04,29.98,29.92,10,10,10,13,5,16,0.00,0,,160
2012-9-2,98,83,67,66,62,55,87,56,25,29.98,29.88,29.79,10,10,10,15,8,21,0.00,0,,163
2012-9-3,83,74,64,67,65,63,87,73,58,29.91,29.86,29.82,10,10,9,15,5,21,T,1,,79
2012-9-4,98,81,64,65,57,41,93,54,15,29.87,29.81,29.69,10,10,8,20,6,30,0.00,0,,200
2012-9-5,84,70,55,59,50,40,84,53,22,29.97,29.89,29.74,10,10,7,23,10,29,0.00,0,,2
2012-9-6,90,71,51,60,50,41,77,54,30,29.99,29.88,29.74,10,10,10,20,10,25,0.00,0,,169
2012-9-7,73,61,49,50,47,42,71,53,35,30.19,30.03,29.83,10,10,10,28,13,32,0.00,2,,346
2012-9-8,85,65,44,43,39,31,83,49,14,30.24,30.14,30.03,10,10,10,22,8,31,0.00,0,,305
2012-9-9,77,61,44,45,38,32,76,48,19,30.27,30.17,30.11,10,10,10,9,4,14,0.00,0,,110
2012-9-10,89,70,51,47,43,38,77,47,16,30.09,29.96,29.84,10,10,10,24,13,35,0.00,0,,183
2012-9-11,94,79,64,47,42,38,44,31,17,29.85,29.80,29.74,10,10,10,23,13,33,0.00,0,,182
2012-9-12,77,65,52,52,46,36,93,60,27,30.31,30.07,29.79,10,8,2,31,17,40,0.57,4,Rain,35
2012-9-13,68,59,50,52,46,38,96,65,34,30.45,30.39,30.32,10,9,5,14,5,20,0.02,1,Rain,358
2012-9-14,78,62,46,43,39,29,86,52,18,30.40,30.33,30.26,10,10,10,15,7,18,0.00,0,,219
2012-9-15,78,62,46,57,42,31,93,56,18,30.27,30.17,30.08,10,10,10,13,5,20,0.00,0,,181
2012-9-16,76,67,58,59,56,51,100,72,43,30.10,30.00,29.88,10,8,2,15,8,21,0.00,4,,190
2012-9-17,68,57,45,54,45,32,93,61,28,30.12,29.99,29.86,10,9,5,30,11,38,T,2,,357
2012-9-18,77,60,42,46,39,34,82,52,22,30.14,30.03,29.89,10,10,7,15,5,23,0.00,2,,182
2012-9-19,91,70,48,46,39,32,80,48,15,30.02,29.90,29.83,10,10,10,28,8,36,0.00,0,,301
2012-9-20,77,61,44,41,35,31,70,45,19,30.11,30.02,29.91,10,10,10,10,4,15,0.00,0,,204
2012-9-21,78,65,51,45,37,32,68,44,20,29.99,29.94,29.88,10,10,10,25,11,44,0.00,0,,300
2012-9-22,66,55,43,39,31,24,70,47,24,30.32,30.23,30.01,10,10,10,16,7,20,0.00,0,,23
2012-9-23,71,53,35,33,29,23,82,51,20,30.33,30.25,30.17,10,10,10,16,6,20,0.00,0,,158
2012-9-24,76,62,48,50,43,34,77,58,38,30.14,29.97,29.83,10,10,8,15,5,20,0.00,0,,151
2012-9-25,82,66,49,50,46,41,86,56,25,29.89,29.86,29.83,10,9,5,10,4,17,0.00,0,,26
2012-9-26,78,63,47,45,40,37,71,47,23,30.17,30.04,29.87,10,10,5,14,6,17,0.00,0,,55
2012-9-27,78,60,41,41,36,31,82,50,18,30.22,30.16,30.11,10,10,5,13,2,21,0.00,0,,93
2012-9-28,78,61,44,45,37,31,71,45,19,30.19,30.14,30.08,10,10,7,10,3,13,0.00,0,,161
2012-9-29,76,59,42,72,42,34,93,57,21,30.18,30.11,29.96,10,10,7,10,3,15,0.00,0,,159
2012-9-30,79,62,44,46,38,30,82,50,17,30.06,29.98,29.91,10,10,10,10,4,15,0.00,0,,186